Time,TemperatureF,DewpointF,PressureIn,WindDirection,WindDirectionDegrees,WindSpeedMPH,WindSpeedGustMPH,Humidity,HourlyPrecipIn,Conditions,Clouds,dailyrainin,SolarRadiationWatts/m^2,SoftwareType,DateUTC
2013-01-20 00:04:00,35.0,9.0,-100.00,NNW,340,5.0,10.0,33,0.00,,,0.00,0.000000,,2013-01-20 05:04:00,
2013-01-20 00:33:00,34.0,9.0,-100.00,NNW,345,5.0,7.0,34,0.00,,,0.00,0.000000,,2013-01-20 05:33:00,
2013-01-20 00:43:00,34.0,9.0,-100.00,NNW,345,5.0,7.0,34,0.00,,,0.00,0.000000,,2013-01-20 05:43:00,
2013-01-20 00:53:00,34.0,9.0,-100.00,NNW,345,5.0,7.0,34,0.00,,,0.00,0.000000,,2013-01-20 05:53:00,
2013-01-20 01:02:00,34.0,9.0,-100.00,NNW,345,5.0,7.0,34,0.00,,,0.00,0.000000,,2013-01-20 06:02:00,
2013-01-20 01:33:00,34.0,12.0,-100.00,NNW,336,5.0,10.0,39,0.00,,,0.00,0.000000,,2013-01-20 06:33:00,
2013-01-20 01:43:00,34.0,12.0,-100.00,NNW,336,5.0,10.0,39,0.00,,,0.00,0.000000,,2013-01-20 06:43:00,
2013-01-20 01:53:00,34.0,12.0,-100.00,NNW,336,5.0,10.0,39,0.00,,,0.00,0.000000,,2013-01-20 06:53:00,
2013-01-20 02:02:00,34.0,12.0,-100.00,NNW,336,5.0,10.0,39,0.00,,,0.00,0.000000,,2013-01-20 07:02:00,
2013-01-20 02:32:00,32.0,13.0,-100.00,NNW,348,5.0,7.0,45,0.00,,,0.00,0.000000,,2013-01-20 07:32:00,
2013-01-20 02:42:00,32.0,13.0,-100.00,NNW,348,5.0,7.0,45,0.00,,,0.00,0.000000,,2013-01-20 07:42:00,
2013-01-20 02:52:00,32.0,13.0,-100.00,NNW,348,5.0,7.0,45,0.00,,,0.00,0.000000,,2013-01-20 07:52:00,
2013-01-20 03:02:00,32.0,13.0,-100.00,NNW,348,5.0,7.0,45,0.00,,,0.00,0.000000,,2013-01-20 08:02:00,
2013-01-20 03:32:00,32.0,15.0,-100.00,NNW,336,4.0,7.0,48,0.00,,,0.00,0.000000,,2013-01-20 08:32:00,
2013-01-20 03:42:00,32.0,15.0,-100.00,NNW,336,4.0,7.0,48,0.00,,,0.00,0.000000,,2013-01-20 08:42:00,
2013-01-20 03:53:00,32.0,15.0,-100.00,NNW,336,4.0,7.0,48,0.00,,,0.00,0.000000,,2013-01-20 08:53:00,
2013-01-20 04:02:00,32.0,15.0,-100.00,NNW,336,4.0,7.0,48,0.00,,,0.00,0.000000,,2013-01-20 09:02:00,
2013-01-20 04:33:00,30.0,17.0,-100.00,NNW,330,5.0,6.0,57,0.00,,,0.00,0.000000,,2013-01-20 09:33:00,
2013-01-20 04:42:00,30.0,17.0,-100.00,NNW,330,5.0,6.0,57,0.00,,,0.00,0.000000,,2013-01-20 09:42:00,
2013-01-20 04:53:00,30.0,17.0,-100.00,NNW,330,5.0,6.0,57,0.00,,,0.00,0.000000,,2013-01-20 09:53:00,
2013-01-20 05:02:00,30.0,17.0,-100.00,NNW,330,5.0,6.0,57,0.00,,,0.00,0.000000,,2013-01-20 10:02:00,
2013-01-20 05:33:00,30.0,18.0,-100.00,NW,323,5.0,8.0,61,0.00,,,0.00,0.000000,,2013-01-20 10:33:00,
2013-01-20 05:42:00,30.0,18.0,-100.00,NW,323,5.0,8.0,61,0.00,,,0.00,0.000000,,2013-01-20 10:42:00,
2013-01-20 05:53:00,30.0,18.0,-100.00,NW,323,5.0,8.0,61,0.00,,,0.00,0.000000,,2013-01-20 10:53:00,
2013-01-20 06:03:00,30.0,18.0,-100.00,NW,323,5.0,8.0,61,0.00,,,0.00,0.000000,,2013-01-20 11:03:00,
2013-01-20 06:33:00,32.0,17.0,-100.00,NNW,334,7.0,14.0,54,0.00,,,0.00,0.000000,,2013-01-20 11:33:00,
2013-01-20 06:43:00,32.0,17.0,-100.00,NNW,334,7.0,14.0,54,0.00,,,0.00,0.000000,,2013-01-20 11:43:00,
2013-01-20 06:54:00,32.0,17.0,-100.00,NNW,334,7.0,14.0,54,0.00,,,0.00,0.000000,,2013-01-20 11:54:00,
2013-01-20 07:03:00,32.0,17.0,-100.00,NNW,334,7.0,14.0,54,0.00,,,0.00,0.000000,,2013-01-20 12:03:00,
2013-01-20 07:33:00,32.0,18.0,-100.00,NNW,327,6.0,12.0,56,0.00,,,0.00,0.000000,,2013-01-20 12:33:00,
2013-01-20 07:43:00,32.0,18.0,-100.00,NNW,327,6.0,12.0,56,0.00,,,0.00,0.000000,,2013-01-20 12:43:00,
2013-01-20 07:53:00,32.0,18.0,-100.00,NNW,327,6.0,12.0,56,0.00,,,0.00,0.000000,,2013-01-20 12:53:00,
2013-01-20 08:03:00,32.0,18.0,-100.00,NNW,327,6.0,12.0,56,0.00,,,0.00,0.000000,,2013-01-20 13:03:00,
2013-01-20 08:33:00,32.0,22.0,-100.00,NNW,328,7.0,13.0,66,0.00,,,0.00,4.000000,,2013-01-20 13:33:00,
2013-01-20 08:43:00,32.0,22.0,-100.00,NNW,328,7.0,13.0,66,0.00,,,0.00,4.000000,,2013-01-20 13:43:00,
2013-01-20 08:53:00,32.0,22.0,-100.00,NNW,328,7.0,13.0,66,0.00,,,0.00,4.000000,,2013-01-20 13:53:00,
2013-01-20 09:03:00,32.0,22.0,-100.00,NNW,328,7.0,13.0,66,0.00,,,0.00,4.000000,,2013-01-20 14:03:00,
2013-01-20 09:33:00,35.0,25.0,-100.00,NW,325,7.0,14.0,67,0.00,,,0.00,115.000000,,2013-01-20 14:33:00,
2013-01-20 09:43:00,35.0,25.0,-100.00,NW,325,7.0,14.0,67,0.00,,,0.00,115.000000,,2013-01-20 14:43:00,
2013-01-20 09:53:00,35.0,25.0,-100.00,NW,325,7.0,14.0,67,0.00,,,0.00,115.000000,,2013-01-20 14:53:00,
2013-01-20 10:03:00,35.0,25.0,-100.00,NW,325,7.0,14.0,67,0.00,,,0.00,115.000000,,2013-01-20 15:03:00,
2013-01-20 10:33:00,38.0,27.0,-100.00,NW,317,7.0,12.0,65,0.00,,,0.00,300.000000,,2013-01-20 15:33:00,
2013-01-20 10:43:00,38.0,27.0,-100.00,NW,317,7.0,12.0,65,0.00,,,0.00,300.000000,,2013-01-20 15:43:00,
2013-01-20 10:53:00,38.0,27.0,-100.00,NW,317,7.0,12.0,65,0.00,,,0.00,300.000000,,2013-01-20 15:53:00,
2013-01-20 11:03:00,38.0,27.0,-100.00,NW,317,7.0,12.0,65,0.00,,,0.00,300.000000,,2013-01-20 16:03:00,
2013-01-20 11:33:00,41.0,29.0,-100.00,NNW,327,5.0,9.0,62,0.00,,,0.00,469.000000,,2013-01-20 16:33:00,
2013-01-20 11:43:00,41.0,29.0,-100.00,NNW,327,5.0,9.0,62,0.00,,,0.00,469.000000,,2013-01-20 16:43:00,
2013-01-20 11:53:00,41.0,29.0,-100.00,NNW,327,5.0,9.0,62,0.00,,,0.00,469.000000,,2013-01-20 16:53:00,
2013-01-20 12:03:00,41.0,29.0,-100.00,NNW,327,5.0,9.0,62,0.00,,,0.00,469.000000,,2013-01-20 17:03:00,
2013-01-20 12:33:00,44.0,30.0,-100.00,NW,316,6.0,12.0,58,0.00,,,0.00,590.000000,,2013-01-20 17:33:00,
2013-01-20 12:43:00,44.0,30.0,-100.00,NW,316,6.0,12.0,58,0.00,,,0.00,590.000000,,2013-01-20 17:43:00,
2013-01-20 12:53:00,44.0,30.0,-100.00,NW,316,6.0,12.0,58,0.00,,,0.00,590.000000,,2013-01-20 17:53:00,
2013-01-20 13:03:00,44.0,30.0,-100.00,NW,316,6.0,12.0,58,0.00,,,0.00,590.000000,,2013-01-20 18:03:00,
2013-01-20 13:33:00,48.0,30.0,-100.00,NW,312,5.0,11.0,50,0.00,,,0.00,651.000000,,2013-01-20 18:33:00,
2013-01-20 13:43:00,48.0,30.0,-100.00,NW,312,5.0,11.0,50,0.00,,,0.00,651.000000,,2013-01-20 18:43:00,
2013-01-20 13:53:00,48.0,30.0,-100.00,NW,312,5.0,11.0,50,0.00,,,0.00,651.000000,,2013-01-20 18:53:00,
2013-01-20 14:03:00,48.0,30.0,-100.00,NW,312,5.0,11.0,50,0.00,,,0.00,651.000000,,2013-01-20 19:03:00,
2013-01-20 14:33:00,49.0,28.0,-100.00,NW,312,7.0,13.0,44,0.00,,,0.00,643.000000,,2013-01-20 19:33:00,
2013-01-20 14:43:00,49.0,28.0,-100.00,NW,312,7.0,13.0,44,0.00,,,0.00,643.000000,,2013-01-20 19:43:00,
2013-01-20 14:53:00,49.0,28.0,-100.00,NW,312,7.0,13.0,44,0.00,,,0.00,643.000000,,2013-01-20 19:53:00,
2013-01-20 15:03:00,49.0,28.0,-100.00,NW,312,7.0,13.0,44,0.00,,,0.00,643.000000,,2013-01-20 20:03:00,
2013-01-20 15:33:00,50.0,27.0,-100.00,NW,311,5.0,11.0,40,0.00,,,0.00,564.000000,,2013-01-20 20:33:00,
2013-01-20 15:42:00,50.0,27.0,-100.00,NW,311,5.0,11.0,40,0.00,,,0.00,564.000000,,2013-01-20 20:42:00,
2013-01-20 15:54:00,50.0,27.0,-100.00,NW,311,5.0,11.0,40,0.00,,,0.00,564.000000,,2013-01-20 20:54:00,
2013-01-20 16:04:00,50.0,27.0,-100.00,NW,311,5.0,11.0,40,0.00,,,0.00,564.000000,,2013-01-20 21:04:00,
2013-01-20 16:33:00,48.0,21.0,-100.00,NW,311,5.0,10.0,34,0.00,,,0.00,431.000000,,2013-01-20 21:33:00,
2013-01-20 16:43:00,48.0,21.0,-100.00,NW,311,5.0,10.0,34,0.00,,,0.00,431.000000,,2013-01-20 21:43:00,
2013-01-20 16:53:00,48.0,21.0,-100.00,NW,311,5.0,10.0,34,0.00,,,0.00,431.000000,,2013-01-20 21:53:00,
2013-01-20 17:03:00,48.0,21.0,-100.00,NW,311,5.0,10.0,34,0.00,,,0.00,431.000000,,2013-01-20 22:03:00,
2013-01-20 17:33:00,44.0,20.0,-100.00,WNW,299,5.0,10.0,38,0.00,,,0.00,141.000000,,2013-01-20 22:33:00,
2013-01-20 17:43:00,44.0,20.0,-100.00,WNW,299,5.0,10.0,38,0.00,,,0.00,141.000000,,2013-01-20 22:43:00,
2013-01-20 17:53:00,44.0,20.0,-100.00,WNW,299,5.0,10.0,38,0.00,,,0.00,141.000000,,2013-01-20 22:53:00,
2013-01-20 18:03:00,44.0,20.0,-100.00,WNW,299,5.0,10.0,38,0.00,,,0.00,141.000000,,2013-01-20 23:03:00,
2013-01-20 18:33:00,39.0,16.0,-100.00,NW,311,4.0,9.0,39,0.00,,,0.00,16.000000,,2013-01-20 23:33:00,
2013-01-20 18:43:00,39.0,16.0,-100.00,NW,311,4.0,9.0,39,0.00,,,0.00,16.000000,,2013-01-20 23:43:00,
2013-01-20 18:53:00,39.0,16.0,-100.00,NW,311,4.0,9.0,39,0.00,,,0.00,16.000000,,2013-01-20 23:53:00,
2013-01-20 19:03:00,39.0,16.0,-100.00,NW,311,4.0,9.0,39,0.00,,,0.00,16.000000,,2013-01-21 00:03:00,
2013-01-20 19:33:00,37.0,21.0,-100.00,NNW,328,5.0,7.0,51,0.00,,,0.00,0.000000,,2013-01-21 00:33:00,
2013-01-20 19:43:00,37.0,21.0,-100.00,NNW,328,5.0,7.0,51,0.00,,,0.00,0.000000,,2013-01-21 00:43:00,
2013-01-20 19:54:00,37.0,21.0,-100.00,NNW,328,5.0,7.0,51,0.00,,,0.00,0.000000,,2013-01-21 00:54:00,
2013-01-20 20:03:00,37.0,21.0,-100.00,NNW,328,5.0,7.0,51,0.00,,,0.00,0.000000,,2013-01-21 01:03:00,
2013-01-20 20:33:00,34.0,22.0,-100.00,NNW,328,5.0,9.0,60,0.00,,,0.00,0.000000,,2013-01-21 01:33:00,
2013-01-20 20:43:00,34.0,22.0,-100.00,NNW,328,5.0,9.0,60,0.00,,,0.00,0.000000,,2013-01-21 01:43:00,
2013-01-20 20:53:00,34.0,22.0,-100.00,NNW,328,5.0,9.0,60,0.00,,,0.00,0.000000,,2013-01-21 01:53:00,
2013-01-20 21:03:00,34.0,22.0,-100.00,NNW,328,5.0,9.0,60,0.00,,,0.00,0.000000,,2013-01-21 02:03:00,
2013-01-20 21:33:00,33.0,23.0,-100.00,NW,322,5.0,11.0,66,0.00,,,0.00,0.000000,,2013-01-21 02:33:00,
2013-01-20 21:43:00,33.0,23.0,-100.00,NW,322,5.0,11.0,66,0.00,,,0.00,0.000000,,2013-01-21 02:43:00,
2013-01-20 21:53:00,33.0,23.0,-100.00,NW,322,5.0,11.0,66,0.00,,,0.00,0.000000,,2013-01-21 02:53:00,
2013-01-20 22:03:00,33.0,23.0,-100.00,NW,322,5.0,11.0,66,0.00,,,0.00,0.000000,,2013-01-21 03:03:00,
2013-01-20 22:33:00,32.0,23.0,-100.00,NNW,346,4.0,8.0,68,0.00,,,0.00,0.000000,,2013-01-21 03:33:00,
2013-01-20 22:43:00,32.0,23.0,-100.00,NNW,346,4.0,8.0,68,0.00,,,0.00,0.000000,,2013-01-21 03:43:00,
2013-01-20 22:54:00,32.0,23.0,-100.00,NNW,346,4.0,8.0,68,0.00,,,0.00,0.000000,,2013-01-21 03:54:00,
2013-01-20 23:03:00,32.0,23.0,-100.00,NNW,346,4.0,8.0,68,0.00,,,0.00,0.000000,,2013-01-21 04:03:00,
2013-01-20 23:33:00,32.0,21.0,-100.00,NNW,342,6.0,7.0,64,0.00,,,0.00,0.000000,,2013-01-21 04:33:00,
2013-01-20 23:43:00,32.0,21.0,-100.00,NNW,342,6.0,7.0,64,0.00,,,0.00,0.000000,,2013-01-21 04:43:00,
2013-01-20 23:53:00,32.0,21.0,-100.00,NNW,342,6.0,7.0,64,0.00,,,0.00,0.000000,,2013-01-21 04:53:00,